sensor_id;sensor_type;location;lat;lon;timestamp;P1;durP1;ratioP1;P2;durP2;ratioP2
21876;SDS011;11103;43.788;23.710;2022-08-19T00:00:16;20.63;;;14.60;;
21876;SDS011;11103;43.788;23.710;2022-08-19T00:02:43;13.57;;;9.67;;
21876;SDS011;11103;43.788;23.710;2022-08-19T00:05:09;13.77;;;9.73;;
21876;SDS011;11103;43.788;23.710;2022-08-19T00:07:35;16.07;;;9.27;;
21876;SDS011;11103;43.788;23.710;2022-08-19T00:10:02;14.90;;;8.67;;
21876;SDS011;11103;43.788;23.710;2022-08-19T00:12:29;16.27;;;8.23;;
21876;SDS011;11103;43.788;23.710;2022-08-19T00:14:54;12.73;;;8.50;;
21876;SDS011;11103;43.788;23.710;2022-08-19T00:17:20;10.53;;;8.43;;
21876;SDS011;11103;43.788;23.710;2022-08-19T00:19:46;14.03;;;8.00;;
21876;SDS011;11103;43.788;23.710;2022-08-19T00:22:11;16.47;;;8.67;;
21876;SDS011;11103;43.788;23.710;2022-08-19T00:24:36;13.70;;;9.60;;
21876;SDS011;11103;43.788;23.710;2022-08-19T00:27:03;11.27;;;8.60;;
21876;SDS011;11103;43.788;23.710;2022-08-19T00:29:29;13.73;;;8.70;;
21876;SDS011;11103;43.788;23.710;2022-08-19T00:31:56;10.50;;;8.97;;
21876;SDS011;11103;43.788;23.710;2022-08-19T00:34:23;10.30;;;8.33;;
21876;SDS011;11103;43.788;23.710;2022-08-19T00:36:51;9.93;;;8.10;;
21876;SDS011;11103;43.788;23.710;2022-08-19T00:39:16;11.03;;;8.73;;
21876;SDS011;11103;43.788;23.710;2022-08-19T00:41:43;11.27;;;8.03;;
21876;SDS011;11103;43.788;23.710;2022-08-19T00:44:14;11.67;;;9.10;;
21876;SDS011;11103;43.788;23.710;2022-08-19T00:46:43;15.63;;;9.67;;
21876;SDS011;11103;43.788;23.710;2022-08-19T00:49:34;16.30;;;8.90;;
21876;SDS011;11103;43.788;23.710;2022-08-19T00:52:11;11.60;;;8.33;;
21876;SDS011;11103;43.788;23.710;2022-08-19T00:54:40;11.77;;;8.57;;
21876;SDS011;11103;43.788;23.710;2022-08-19T00:57:08;13.83;;;9.40;;
21876;SDS011;11103;43.788;23.710;2022-08-19T00:59:37;16.40;;;9.70;;
21876;SDS011;11103;43.788;23.710;2022-08-19T01:02:05;11.67;;;8.63;;
21876;SDS011;11103;43.788;23.710;2022-08-19T01:04:31;13.67;;;9.47;;
21876;SDS011;11103;43.788;23.710;2022-08-19T01:06:56;14.10;;;9.47;;
21876;SDS011;11103;43.788;23.710;2022-08-19T01:09:23;18.60;;;8.97;;
21876;SDS011;11103;43.788;23.710;2022-08-19T01:11:49;13.57;;;9.17;;
21876;SDS011;11103;43.788;23.710;2022-08-19T01:14:16;14.63;;;9.27;;
21876;SDS011;11103;43.788;23.710;2022-08-19T01:16:42;11.07;;;8.90;;
21876;SDS011;11103;43.788;23.710;2022-08-19T01:22:36;14.50;;;9.83;;
21876;SDS011;11103;43.788;23.710;2022-08-19T01:25:07;12.87;;;9.73;;
21876;SDS011;11103;43.788;23.710;2022-08-19T01:27:39;15.20;;;9.73;;
21876;SDS011;11103;43.788;23.710;2022-08-19T01:30:07;14.43;;;10.07;;
21876;SDS011;11103;43.788;23.710;2022-08-19T01:32:34;11.43;;;9.33;;
21876;SDS011;11103;43.788;23.710;2022-08-19T01:35:03;16.13;;;10.70;;
21876;SDS011;11103;43.788;23.710;2022-08-19T01:37:28;14.83;;;10.80;;
21876;SDS011;11103;43.788;23.710;2022-08-19T01:39:55;18.13;;;10.53;;
21876;SDS011;11103;43.788;23.710;2022-08-19T01:42:21;15.50;;;9.50;;
21876;SDS011;11103;43.788;23.710;2022-08-19T01:44:47;14.93;;;9.87;;
21876;SDS011;11103;43.788;23.710;2022-08-19T01:47:12;15.53;;;9.37;;
21876;SDS011;11103;43.788;23.710;2022-08-19T01:49:38;15.00;;;10.13;;
21876;SDS011;11103;43.788;23.710;2022-08-19T01:52:04;14.90;;;10.37;;
21876;SDS011;11103;43.788;23.710;2022-08-19T01:54:31;15.90;;;10.40;;
21876;SDS011;11103;43.788;23.710;2022-08-19T01:57:03;16.63;;;9.80;;
21876;SDS011;11103;43.788;23.710;2022-08-19T01:59:33;15.70;;;10.43;;
21876;SDS011;11103;43.788;23.710;2022-08-19T02:02:01;14.50;;;9.63;;
21876;SDS011;11103;43.788;23.710;2022-08-19T02:07:03;19.20;;;10.57;;
21876;SDS011;11103;43.788;23.710;2022-08-19T02:09:30;13.27;;;10.23;;
21876;SDS011;11103;43.788;23.710;2022-08-19T02:11:56;17.07;;;10.90;;
21876;SDS011;11103;43.788;23.710;2022-08-19T02:14:22;14.03;;;10.70;;
21876;SDS011;11103;43.788;23.710;2022-08-19T02:16:47;16.53;;;11.43;;
21876;SDS011;11103;43.788;23.710;2022-08-19T02:19:14;14.30;;;10.10;;
21876;SDS011;11103;43.788;23.710;2022-08-19T02:21:39;14.33;;;10.37;;
21876;SDS011;11103;43.788;23.710;2022-08-19T02:24:05;14.60;;;10.07;;
21876;SDS011;11103;43.788;23.710;2022-08-19T02:26:31;14.23;;;10.50;;
21876;SDS011;11103;43.788;23.710;2022-08-19T02:28:57;17.90;;;10.40;;
21876;SDS011;11103;43.788;23.710;2022-08-19T02:31:24;15.27;;;11.97;;
21876;SDS011;11103;43.788;23.710;2022-08-19T02:33:52;15.10;;;10.00;;
21876;SDS011;11103;43.788;23.710;2022-08-19T02:36:18;16.40;;;11.40;;
21876;SDS011;11103;43.788;23.710;2022-08-19T02:38:44;16.37;;;10.60;;
21876;SDS011;11103;43.788;23.710;2022-08-19T02:41:15;16.17;;;11.73;;
21876;SDS011;11103;43.788;23.710;2022-08-19T02:43:43;16.40;;;11.73;;
21876;SDS011;11103;43.788;23.710;2022-08-19T02:46:15;22.50;;;11.47;;
21876;SDS011;11103;43.788;23.710;2022-08-19T02:48:50;18.23;;;11.83;;
21876;SDS011;11103;43.788;23.710;2022-08-19T02:51:19;18.43;;;10.73;;
21876;SDS011;11103;43.788;23.710;2022-08-19T02:53:50;18.30;;;10.67;;
21876;SDS011;11103;43.788;23.710;2022-08-19T02:56:16;17.67;;;11.13;;
21876;SDS011;11103;43.788;23.710;2022-08-19T02:58:42;16.77;;;11.47;;
21876;SDS011;11103;43.788;23.710;2022-08-19T03:01:08;16.03;;;10.90;;
21876;SDS011;11103;43.788;23.710;2022-08-19T03:03:35;17.50;;;11.00;;
21876;SDS011;11103;43.788;23.710;2022-08-19T03:06:09;15.70;;;11.27;;
21876;SDS011;11103;43.788;23.710;2022-08-19T03:08:39;21.20;;;11.33;;
21876;SDS011;11103;43.788;23.710;2022-08-19T03:11:06;16.40;;;11.60;;
21876;SDS011;11103;43.788;23.710;2022-08-19T03:13:39;16.97;;;11.17;;
21876;SDS011;11103;43.788;23.710;2022-08-19T03:16:05;19.70;;;11.30;;
21876;SDS011;11103;43.788;23.710;2022-08-19T03:18:31;17.97;;;11.93;;
21876;SDS011;11103;43.788;23.710;2022-08-19T03:20:56;17.90;;;11.50;;
21876;SDS011;11103;43.788;23.710;2022-08-19T03:23:22;19.00;;;12.07;;
21876;SDS011;11103;43.788;23.710;2022-08-19T03:25:49;18.17;;;10.80;;
21876;SDS011;11103;43.788;23.710;2022-08-19T03:28:16;15.97;;;11.80;;
21876;SDS011;11103;43.788;23.710;2022-08-19T03:30:42;13.67;;;11.13;;
21876;SDS011;11103;43.788;23.710;2022-08-19T03:33:09;16.10;;;11.13;;
21876;SDS011;11103;43.788;23.710;2022-08-19T03:35:37;16.63;;;11.30;;
21876;SDS011;11103;43.788;23.710;2022-08-19T03:38:03;22.20;;;12.50;;
21876;SDS011;11103;43.788;23.710;2022-08-19T03:40:30;17.77;;;11.50;;
21876;SDS011;11103;43.788;23.710;2022-08-19T03:42:56;17.47;;;11.67;;
21876;SDS011;11103;43.788;23.710;2022-08-19T03:45:22;17.47;;;11.80;;
21876;SDS011;11103;43.788;23.710;2022-08-19T03:47:48;17.70;;;10.97;;
21876;SDS011;11103;43.788;23.710;2022-08-19T03:50:13;17.60;;;11.43;;
21876;SDS011;11103;43.788;23.710;2022-08-19T03:52:39;17.20;;;11.90;;
21876;SDS011;11103;43.788;23.710;2022-08-19T03:55:05;20.20;;;12.03;;
21876;SDS011;11103;43.788;23.710;2022-08-19T03:57:31;18.67;;;12.43;;
21876;SDS011;11103;43.788;23.710;2022-08-19T03:59:58;18.17;;;11.50;;
21876;SDS011;11103;43.788;23.710;2022-08-19T04:02:24;21.27;;;12.40;;
21876;SDS011;11103;43.788;23.710;2022-08-19T04:04:49;19.30;;;12.30;;
21876;SDS011;11103;43.788;23.710;2022-08-19T04:07:19;15.27;;;12.03;;
21876;SDS011;11103;43.788;23.710;2022-08-19T04:09:46;17.37;;;11.57;;
21876;SDS011;11103;43.788;23.710;2022-08-19T04:12:12;18.87;;;12.23;;
21876;SDS011;11103;43.788;23.710;2022-08-19T04:14:40;16.60;;;11.90;;
21876;SDS011;11103;43.788;23.710;2022-08-19T04:17:08;19.93;;;12.03;;
21876;SDS011;11103;43.788;23.710;2022-08-19T04:19:34;16.30;;;11.57;;
21876;SDS011;11103;43.788;23.710;2022-08-19T04:22:00;15.83;;;11.87;;
21876;SDS011;11103;43.788;23.710;2022-08-19T04:24:26;28.27;;;12.63;;
21876;SDS011;11103;43.788;23.710;2022-08-19T04:26:52;16.07;;;10.93;;
21876;SDS011;11103;43.788;23.710;2022-08-19T04:29:19;21.23;;;11.87;;
21876;SDS011;11103;43.788;23.710;2022-08-19T04:31:47;19.83;;;11.73;;
21876;SDS011;11103;43.788;23.710;2022-08-19T04:34:14;20.97;;;11.70;;
21876;SDS011;11103;43.788;23.710;2022-08-19T04:36:42;19.93;;;12.67;;
21876;SDS011;11103;43.788;23.710;2022-08-19T04:39:14;18.07;;;11.87;;
21876;SDS011;11103;43.788;23.710;2022-08-19T04:41:41;21.27;;;11.53;;
21876;SDS011;11103;43.788;23.710;2022-08-19T04:44:25;20.70;;;12.67;;
21876;SDS011;11103;43.788;23.710;2022-08-19T04:46:51;13.87;;;11.00;;
21876;SDS011;11103;43.788;23.710;2022-08-19T04:49:18;15.13;;;11.37;;
21876;SDS011;11103;43.788;23.710;2022-08-19T04:51:49;18.20;;;11.47;;
21876;SDS011;11103;43.788;23.710;2022-08-19T04:54:19;20.33;;;12.23;;
21876;SDS011;11103;43.788;23.710;2022-08-19T04:56:47;16.57;;;11.37;;
21876;SDS011;11103;43.788;23.710;2022-08-19T04:59:16;18.03;;;11.33;;
21876;SDS011;11103;43.788;23.710;2022-08-19T05:01:43;17.53;;;11.83;;
21876;SDS011;11103;43.788;23.710;2022-08-19T05:04:09;19.23;;;11.50;;
21876;SDS011;11103;43.788;23.710;2022-08-19T05:06:35;19.40;;;12.13;;
21876;SDS011;11103;43.788;23.710;2022-08-19T05:09:02;17.53;;;12.50;;
21876;SDS011;11103;43.788;23.710;2022-08-19T05:11:29;17.63;;;12.50;;
21876;SDS011;11103;43.788;23.710;2022-08-19T05:13:57;15.77;;;11.33;;
21876;SDS011;11103;43.788;23.710;2022-08-19T05:16:23;13.30;;;10.70;;
21876;SDS011;11103;43.788;23.710;2022-08-19T05:18:50;14.20;;;10.80;;
21876;SDS011;11103;43.788;23.710;2022-08-19T05:21:34;16.00;;;10.30;;
21876;SDS011;11103;43.788;23.710;2022-08-19T05:24:22;15.33;;;11.40;;
21876;SDS011;11103;43.788;23.710;2022-08-19T05:26:49;17.90;;;10.33;;
21876;SDS011;11103;43.788;23.710;2022-08-19T05:29:17;18.17;;;10.47;;
21876;SDS011;11103;43.788;23.710;2022-08-19T05:31:45;16.37;;;9.47;;
21876;SDS011;11103;43.788;23.710;2022-08-19T05:34:14;13.47;;;9.70;;
21876;SDS011;11103;43.788;23.710;2022-08-19T05:36:41;15.57;;;10.70;;
21876;SDS011;11103;43.788;23.710;2022-08-19T05:39:15;14.37;;;10.00;;
21876;SDS011;11103;43.788;23.710;2022-08-19T05:41:44;17.80;;;10.77;;
21876;SDS011;11103;43.788;23.710;2022-08-19T05:44:11;11.80;;;9.93;;
21876;SDS011;11103;43.788;23.710;2022-08-19T05:46:37;16.00;;;10.27;;
21876;SDS011;11103;43.788;23.710;2022-08-19T05:49:07;19.60;;;10.93;;
21876;SDS011;11103;43.788;23.710;2022-08-19T05:51:33;14.43;;;9.90;;
21876;SDS011;11103;43.788;23.710;2022-08-19T05:54:09;15.20;;;9.87;;
21876;SDS011;11103;43.788;23.710;2022-08-19T05:56:36;13.17;;;9.90;;
21876;SDS011;11103;43.788;23.710;2022-08-19T05:59:04;16.73;;;11.33;;
21876;SDS011;11103;43.788;23.710;2022-08-19T06:01:41;18.63;;;12.00;;
21876;SDS011;11103;43.788;23.710;2022-08-19T06:04:09;15.03;;;10.50;;
21876;SDS011;11103;43.788;23.710;2022-08-19T06:06:35;16.33;;;9.40;;
21876;SDS011;11103;43.788;23.710;2022-08-19T06:09:02;13.87;;;9.67;;
21876;SDS011;11103;43.788;23.710;2022-08-19T06:11:37;14.07;;;10.07;;
21876;SDS011;11103;43.788;23.710;2022-08-19T06:14:16;18.03;;;10.73;;
21876;SDS011;11103;43.788;23.710;2022-08-19T06:16:45;12.03;;;9.37;;
21876;SDS011;11103;43.788;23.710;2022-08-19T06:19:13;17.07;;;9.93;;
21876;SDS011;11103;43.788;23.710;2022-08-19T06:21:42;12.60;;;9.17;;
21876;SDS011;11103;43.788;23.710;2022-08-19T06:24:09;12.97;;;9.60;;
21876;SDS011;11103;43.788;23.710;2022-08-19T06:26:37;17.87;;;10.33;;
21876;SDS011;11103;43.788;23.710;2022-08-19T06:29:05;17.20;;;10.00;;
21876;SDS011;11103;43.788;23.710;2022-08-19T06:31:34;18.43;;;11.60;;
21876;SDS011;11103;43.788;23.710;2022-08-19T06:34:03;14.27;;;9.73;;
21876;SDS011;11103;43.788;23.710;2022-08-19T06:36:31;17.77;;;10.03;;
21876;SDS011;11103;43.788;23.710;2022-08-19T06:38:59;22.57;;;10.10;;
21876;SDS011;11103;43.788;23.710;2022-08-19T06:41:26;14.87;;;9.57;;
21876;SDS011;11103;43.788;23.710;2022-08-19T06:43:52;20.60;;;9.50;;
21876;SDS011;11103;43.788;23.710;2022-08-19T06:46:19;14.00;;;9.73;;
21876;SDS011;11103;43.788;23.710;2022-08-19T06:48:45;13.00;;;9.03;;
21876;SDS011;11103;43.788;23.710;2022-08-19T06:51:11;13.57;;;9.63;;
21876;SDS011;11103;43.788;23.710;2022-08-19T06:53:47;13.00;;;9.50;;
21876;SDS011;11103;43.788;23.710;2022-08-19T06:56:14;24.50;;;15.53;;
21876;SDS011;11103;43.788;23.710;2022-08-19T06:58:42;12.47;;;8.93;;
21876;SDS011;11103;43.788;23.710;2022-08-19T07:01:08;32.43;;;18.50;;
21876;SDS011;11103;43.788;23.710;2022-08-19T07:03:35;17.97;;;11.07;;
21876;SDS011;11103;43.788;23.710;2022-08-19T07:06:02;12.37;;;9.60;;
21876;SDS011;11103;43.788;23.710;2022-08-19T07:08:40;18.57;;;9.27;;
21876;SDS011;11103;43.788;23.710;2022-08-19T07:11:08;25.80;;;10.87;;
21876;SDS011;11103;43.788;23.710;2022-08-19T07:13:35;16.07;;;11.40;;
21876;SDS011;11103;43.788;23.710;2022-08-19T07:16:03;21.13;;;10.77;;
21876;SDS011;11103;43.788;23.710;2022-08-19T07:18:30;13.03;;;9.70;;
21876;SDS011;11103;43.788;23.710;2022-08-19T07:21:06;17.90;;;12.93;;
21876;SDS011;11103;43.788;23.710;2022-08-19T07:23:36;15.40;;;9.43;;
21876;SDS011;11103;43.788;23.710;2022-08-19T07:26:09;29.43;;;16.60;;
21876;SDS011;11103;43.788;23.710;2022-08-19T07:28:39;15.23;;;7.87;;
21876;SDS011;11103;43.788;23.710;2022-08-19T07:31:06;13.23;;;8.20;;
21876;SDS011;11103;43.788;23.710;2022-08-19T07:33:32;11.70;;;9.00;;
21876;SDS011;11103;43.788;23.710;2022-08-19T07:36:01;12.63;;;8.50;;
21876;SDS011;11103;43.788;23.710;2022-08-19T07:38:26;10.57;;;7.93;;
21876;SDS011;11103;43.788;23.710;2022-08-19T07:40:51;12.93;;;9.00;;
21876;SDS011;11103;43.788;23.710;2022-08-19T07:43:17;13.67;;;8.03;;
21876;SDS011;11103;43.788;23.710;2022-08-19T07:45:48;16.53;;;10.03;;
21876;SDS011;11103;43.788;23.710;2022-08-19T07:48:13;9.50;;;7.37;;
21876;SDS011;11103;43.788;23.710;2022-08-19T07:50:39;10.07;;;7.80;;
21876;SDS011;11103;43.788;23.710;2022-08-19T07:53:05;9.10;;;7.30;;
21876;SDS011;11103;43.788;23.710;2022-08-19T07:55:30;13.53;;;7.80;;
21876;SDS011;11103;43.788;23.710;2022-08-19T07:57:56;11.00;;;7.97;;
21876;SDS011;11103;43.788;23.710;2022-08-19T08:00:22;22.73;;;12.87;;
21876;SDS011;11103;43.788;23.710;2022-08-19T08:02:47;10.10;;;7.13;;
21876;SDS011;11103;43.788;23.710;2022-08-19T08:05:13;14.63;;;7.30;;
21876;SDS011;11103;43.788;23.710;2022-08-19T08:07:57;9.33;;;7.50;;
21876;SDS011;11103;43.788;23.710;2022-08-19T08:10:45;12.40;;;7.03;;
21876;SDS011;11103;43.788;23.710;2022-08-19T08:13:11;7.93;;;6.57;;
21876;SDS011;11103;43.788;23.710;2022-08-19T08:15:37;18.03;;;6.97;;
21876;SDS011;11103;43.788;23.710;2022-08-19T08:18:03;13.13;;;6.63;;
21876;SDS011;11103;43.788;23.710;2022-08-19T08:20:29;9.50;;;6.83;;
21876;SDS011;11103;43.788;23.710;2022-08-19T08:22:55;8.90;;;7.03;;
21876;SDS011;11103;43.788;23.710;2022-08-19T08:25:39;8.17;;;6.83;;
21876;SDS011;11103;43.788;23.710;2022-08-19T08:28:07;12.80;;;7.10;;
21876;SDS011;11103;43.788;23.710;2022-08-19T08:30:34;13.80;;;7.50;;
21876;SDS011;11103;43.788;23.710;2022-08-19T08:33:01;10.40;;;6.97;;
21876;SDS011;11103;43.788;23.710;2022-08-19T08:35:27;9.07;;;6.13;;
21876;SDS011;11103;43.788;23.710;2022-08-19T08:37:53;11.73;;;6.87;;
21876;SDS011;11103;43.788;23.710;2022-08-19T08:43:48;7.63;;;6.50;;
21876;SDS011;11103;43.788;23.710;2022-08-19T08:46:11;11.13;;;6.80;;
21876;SDS011;11103;43.788;23.710;2022-08-19T08:51:27;8.37;;;6.20;;
21876;SDS011;11103;43.788;23.710;2022-08-19T08:53:58;7.80;;;6.20;;
21876;SDS011;11103;43.788;23.710;2022-08-19T08:56:24;10.80;;;6.43;;
21876;SDS011;11103;43.788;23.710;2022-08-19T08:59:02;11.33;;;6.67;;
21876;SDS011;11103;43.788;23.710;2022-08-19T09:01:34;10.53;;;6.50;;
21876;SDS011;11103;43.788;23.710;2022-08-19T09:04:04;9.60;;;6.00;;
21876;SDS011;11103;43.788;23.710;2022-08-19T09:14:48;8.47;;;5.77;;
21876;SDS011;11103;43.788;23.710;2022-08-19T09:17:23;22.23;;;14.33;;
21876;SDS011;11103;43.788;23.710;2022-08-19T09:22:39;10.13;;;6.50;;
21876;SDS011;11103;43.788;23.710;2022-08-19T09:25:09;14.73;;;8.23;;
21876;SDS011;11103;43.788;23.710;2022-08-19T09:27:37;12.10;;;7.37;;
21876;SDS011;11103;43.788;23.710;2022-08-19T09:30:05;13.37;;;9.87;;
21876;SDS011;11103;43.788;23.710;2022-08-19T09:32:32;9.83;;;5.80;;
21876;SDS011;11103;43.788;23.710;2022-08-19T09:34:58;10.00;;;6.00;;
21876;SDS011;11103;43.788;23.710;2022-08-19T09:37:25;10.30;;;6.33;;
21876;SDS011;11103;43.788;23.710;2022-08-19T09:39:51;9.30;;;6.60;;
21876;SDS011;11103;43.788;23.710;2022-08-19T09:42:17;7.90;;;6.27;;
21876;SDS011;11103;43.788;23.710;2022-08-19T09:44:43;7.87;;;6.43;;
21876;SDS011;11103;43.788;23.710;2022-08-19T09:47:09;7.33;;;6.53;;
21876;SDS011;11103;43.788;23.710;2022-08-19T09:49:36;11.93;;;6.40;;
21876;SDS011;11103;43.788;23.710;2022-08-19T09:52:04;11.20;;;6.20;;
21876;SDS011;11103;43.788;23.710;2022-08-19T09:54:31;8.23;;;6.03;;
21876;SDS011;11103;43.788;23.710;2022-08-19T09:56:57;13.83;;;7.00;;
21876;SDS011;11103;43.788;23.710;2022-08-19T09:59:25;7.13;;;6.10;;
21876;SDS011;11103;43.788;23.710;2022-08-19T10:01:51;13.40;;;6.87;;
21876;SDS011;11103;43.788;23.710;2022-08-19T10:04:17;8.83;;;6.10;;
21876;SDS011;11103;43.788;23.710;2022-08-19T10:06:42;8.63;;;6.20;;
21876;SDS011;11103;43.788;23.710;2022-08-19T10:09:08;10.77;;;6.33;;
21876;SDS011;11103;43.788;23.710;2022-08-19T10:11:36;7.53;;;6.70;;
21876;SDS011;11103;43.788;23.710;2022-08-19T10:14:04;7.50;;;5.43;;
21876;SDS011;11103;43.788;23.710;2022-08-19T10:16:33;13.53;;;6.57;;
21876;SDS011;11103;43.788;23.710;2022-08-19T10:19:01;8.03;;;5.77;;
21876;SDS011;11103;43.788;23.710;2022-08-19T10:21:27;11.60;;;5.73;;
21876;SDS011;11103;43.788;23.710;2022-08-19T10:23:55;7.50;;;6.43;;
21876;SDS011;11103;43.788;23.710;2022-08-19T10:26:25;15.13;;;7.20;;
21876;SDS011;11103;43.788;23.710;2022-08-19T10:28:53;7.10;;;5.57;;
21876;SDS011;11103;43.788;23.710;2022-08-19T10:31:21;7.10;;;5.87;;
21876;SDS011;11103;43.788;23.710;2022-08-19T10:33:49;16.10;;;5.60;;
21876;SDS011;11103;43.788;23.710;2022-08-19T10:36:18;5.83;;;5.23;;
21876;SDS011;11103;43.788;23.710;2022-08-19T10:38:46;11.47;;;5.93;;
21876;SDS011;11103;43.788;23.710;2022-08-19T10:41:21;7.73;;;5.67;;
21876;SDS011;11103;43.788;23.710;2022-08-19T10:43:55;8.23;;;5.60;;
21876;SDS011;11103;43.788;23.710;2022-08-19T10:46:24;7.17;;;5.57;;
21876;SDS011;11103;43.788;23.710;2022-08-19T10:48:51;8.47;;;6.10;;
21876;SDS011;11103;43.788;23.710;2022-08-19T10:51:17;11.10;;;5.77;;
21876;SDS011;11103;43.788;23.710;2022-08-19T10:54:02;8.43;;;5.75;;
21876;SDS011;11103;43.788;23.710;2022-08-19T10:56:28;15.17;;;5.60;;
21876;SDS011;11103;43.788;23.710;2022-08-19T10:59:14;7.07;;;5.90;;
21876;SDS011;11103;43.788;23.710;2022-08-19T11:01:41;7.37;;;5.13;;
21876;SDS011;11103;43.788;23.710;2022-08-19T11:04:09;6.25;;;5.30;;
21876;SDS011;11103;43.788;23.710;2022-08-19T11:06:37;11.90;;;5.53;;
21876;SDS011;11103;43.788;23.710;2022-08-19T11:09:04;14.82;;;6.00;;
21876;SDS011;11103;43.788;23.710;2022-08-19T11:11:33;8.70;;;4.87;;
21876;SDS011;11103;43.788;23.710;2022-08-19T11:14:09;10.50;;;5.68;;
21876;SDS011;11103;43.788;23.710;2022-08-19T11:16:43;7.97;;;5.80;;
21876;SDS011;11103;43.788;23.710;2022-08-19T11:19:10;9.02;;;5.82;;
21876;SDS011;11103;43.788;23.710;2022-08-19T11:21:38;18.45;;;10.50;;
21876;SDS011;11103;43.788;23.710;2022-08-19T11:24:07;6.40;;;5.80;;
21876;SDS011;11103;43.788;23.710;2022-08-19T11:26:38;9.07;;;5.45;;
21876;SDS011;11103;43.788;23.710;2022-08-19T11:29:04;7.05;;;5.22;;
21876;SDS011;11103;43.788;23.710;2022-08-19T11:31:32;9.40;;;5.40;;
21876;SDS011;11103;43.788;23.710;2022-08-19T11:34:02;6.68;;;5.55;;
21876;SDS011;11103;43.788;23.710;2022-08-19T11:36:32;5.68;;;5.00;;
21876;SDS011;11103;43.788;23.710;2022-08-19T11:38:58;7.95;;;5.43;;
21876;SDS011;11103;43.788;23.710;2022-08-19T11:41:25;6.43;;;4.80;;
21876;SDS011;11103;43.788;23.710;2022-08-19T11:43:51;9.48;;;4.50;;
21876;SDS011;11103;43.788;23.710;2022-08-19T11:46:20;5.70;;;4.70;;
21876;SDS011;11103;43.788;23.710;2022-08-19T11:48:46;9.95;;;5.10;;
21876;SDS011;11103;43.788;23.710;2022-08-19T11:51:21;6.68;;;5.40;;
21876;SDS011;11103;43.788;23.710;2022-08-19T11:53:49;7.47;;;5.10;;
21876;SDS011;11103;43.788;23.710;2022-08-19T11:56:16;7.85;;;5.10;;
21876;SDS011;11103;43.788;23.710;2022-08-19T11:58:42;11.93;;;5.07;;
21876;SDS011;11103;43.788;23.710;2022-08-19T12:01:09;6.55;;;5.13;;
21876;SDS011;11103;43.788;23.710;2022-08-19T12:03:41;9.88;;;5.20;;
21876;SDS011;11103;43.788;23.710;2022-08-19T12:06:08;7.63;;;5.10;;
21876;SDS011;11103;43.788;23.710;2022-08-19T12:08:37;6.35;;;4.95;;
21876;SDS011;11103;43.788;23.710;2022-08-19T12:11:03;6.57;;;4.75;;
21876;SDS011;11103;43.788;23.710;2022-08-19T12:13:29;6.75;;;4.78;;
21876;SDS011;11103;43.788;23.710;2022-08-19T12:15:55;5.90;;;4.10;;
21876;SDS011;11103;43.788;23.710;2022-08-19T12:18:22;8.38;;;4.63;;
21876;SDS011;11103;43.788;23.710;2022-08-19T12:20:50;7.65;;;5.13;;
21876;SDS011;11103;43.788;23.710;2022-08-19T12:23:17;9.23;;;6.07;;
21876;SDS011;11103;43.788;23.710;2022-08-19T12:25:44;6.95;;;4.80;;
21876;SDS011;11103;43.788;23.710;2022-08-19T12:28:15;9.15;;;4.68;;
21876;SDS011;11103;43.788;23.710;2022-08-19T12:30:41;8.68;;;5.55;;
21876;SDS011;11103;43.788;23.710;2022-08-19T12:33:07;8.77;;;6.40;;
21876;SDS011;11103;43.788;23.710;2022-08-19T12:35:33;8.50;;;5.78;;
21876;SDS011;11103;43.788;23.710;2022-08-19T12:37:58;12.27;;;6.05;;
21876;SDS011;11103;43.788;23.710;2022-08-19T12:40:27;9.13;;;4.80;;
21876;SDS011;11103;43.788;23.710;2022-08-19T12:42:53;6.78;;;4.93;;
21876;SDS011;11103;43.788;23.710;2022-08-19T12:45:19;6.45;;;4.75;;
21876;SDS011;11103;43.788;23.710;2022-08-19T12:47:44;6.82;;;4.57;;
21876;SDS011;11103;43.788;23.710;2022-08-19T12:50:11;6.07;;;4.20;;
21876;SDS011;11103;43.788;23.710;2022-08-19T12:52:37;6.85;;;4.85;;
21876;SDS011;11103;43.788;23.710;2022-08-19T12:55:03;7.80;;;4.82;;
21876;SDS011;11103;43.788;23.710;2022-08-19T12:57:30;6.60;;;5.35;;
21876;SDS011;11103;43.788;23.710;2022-08-19T12:59:58;7.15;;;4.38;;
21876;SDS011;11103;43.788;23.710;2022-08-19T13:02:37;7.53;;;5.25;;
21876;SDS011;11103;43.788;23.710;2022-08-19T13:05:04;8.70;;;6.93;;
21876;SDS011;11103;43.788;23.710;2022-08-19T13:07:33;7.57;;;5.10;;
21876;SDS011;11103;43.788;23.710;2022-08-19T13:09:59;5.82;;;4.43;;
21876;SDS011;11103;43.788;23.710;2022-08-19T13:12:25;6.85;;;4.63;;
21876;SDS011;11103;43.788;23.710;2022-08-19T13:14:51;7.85;;;5.47;;
21876;SDS011;11103;43.788;23.710;2022-08-19T13:17:17;9.88;;;6.63;;
21876;SDS011;11103;43.788;23.710;2022-08-19T13:19:43;13.05;;;7.35;;
21876;SDS011;11103;43.788;23.710;2022-08-19T13:22:08;9.35;;;4.90;;
21876;SDS011;11103;43.788;23.710;2022-08-19T13:24:34;10.45;;;4.78;;
21876;SDS011;11103;43.788;23.710;2022-08-19T13:27:01;10.43;;;4.97;;
21876;SDS011;11103;43.788;23.710;2022-08-19T13:29:27;8.18;;;4.95;;
21876;SDS011;11103;43.788;23.710;2022-08-19T13:32:14;7.13;;;4.47;;
21876;SDS011;11103;43.788;23.710;2022-08-19T13:34:58;7.03;;;4.82;;
21876;SDS011;11103;43.788;23.710;2022-08-19T13:37:23;6.25;;;4.47;;
21876;SDS011;11103;43.788;23.710;2022-08-19T13:40:07;11.27;;;4.53;;
21876;SDS011;11103;43.788;23.710;2022-08-19T13:42:40;7.03;;;4.72;;
21876;SDS011;11103;43.788;23.710;2022-08-19T13:45:07;7.13;;;4.43;;
21876;SDS011;11103;43.788;23.710;2022-08-19T13:47:34;8.23;;;4.68;;
21876;SDS011;11103;43.788;23.710;2022-08-19T13:50:03;7.53;;;4.57;;
21876;SDS011;11103;43.788;23.710;2022-08-19T13:52:30;7.50;;;4.72;;
21876;SDS011;11103;43.788;23.710;2022-08-19T13:54:55;6.80;;;4.50;;
21876;SDS011;11103;43.788;23.710;2022-08-19T13:57:22;10.55;;;4.72;;
21876;SDS011;11103;43.788;23.710;2022-08-19T13:59:48;6.97;;;4.50;;
21876;SDS011;11103;43.788;23.710;2022-08-19T14:02:13;6.97;;;4.75;;
21876;SDS011;11103;43.788;23.710;2022-08-19T14:04:39;6.68;;;4.72;;
21876;SDS011;11103;43.788;23.710;2022-08-19T14:07:05;6.18;;;4.22;;
21876;SDS011;11103;43.788;23.710;2022-08-19T14:09:30;4.82;;;4.32;;
21876;SDS011;11103;43.788;23.710;2022-08-19T14:11:56;9.10;;;4.20;;
21876;SDS011;11103;43.788;23.710;2022-08-19T14:14:22;5.93;;;5.35;;
21876;SDS011;11103;43.788;23.710;2022-08-19T14:16:47;10.18;;;7.25;;
21876;SDS011;11103;43.788;23.710;2022-08-19T14:19:14;10.48;;;4.78;;
21876;SDS011;11103;43.788;23.710;2022-08-19T14:21:39;9.38;;;6.57;;
21876;SDS011;11103;43.788;23.710;2022-08-19T14:24:06;6.68;;;5.07;;
21876;SDS011;11103;43.788;23.710;2022-08-19T14:26:32;6.47;;;4.70;;
21876;SDS011;11103;43.788;23.710;2022-08-19T14:28:57;9.18;;;4.57;;
21876;SDS011;11103;43.788;23.710;2022-08-19T14:31:23;9.68;;;4.20;;
21876;SDS011;11103;43.788;23.710;2022-08-19T14:33:49;7.40;;;4.00;;
21876;SDS011;11103;43.788;23.710;2022-08-19T14:36:16;5.95;;;4.95;;
21876;SDS011;11103;43.788;23.710;2022-08-19T14:38:42;4.63;;;3.83;;
21876;SDS011;11103;43.788;23.710;2022-08-19T14:43:34;7.20;;;4.13;;
21876;SDS011;11103;43.788;23.710;2022-08-19T14:46:00;9.57;;;6.22;;
21876;SDS011;11103;43.788;23.710;2022-08-19T14:48:25;9.30;;;4.05;;
21876;SDS011;11103;43.788;23.710;2022-08-19T14:50:51;8.23;;;5.07;;